Floyd Dale, South Carolina
Current Conditions -  °F | °C
As of 4:15 PM on Friday 19 Dec 2014 (Local Time) from KMAO Reporting Station
Clear Clear  
Wind Chill: 57°   Ceiling: Unl
Heat Index: 57°   Visibility: 10mi
Dew Point: 30°   Wind: 0mph
Humidity: 36%   Direction: NA
Pressure: 30.12"   Gusts: NA
Location:  34.32°N, 79.34°W
Report Text: KMAO 192115Z AUTO 00000KT 10SM CLR 14/M01 A3012 RMK AO2
Loading
Personal Weather Stations






























Interactive Weather Map New forecast layout! Learn more

10-Day Weather Forecast

Advertisements
Track Severe Weather on mobile